Dallas, South Dakota
Current Conditions -  °F | °C
As of 2:53 PM on Thursday 23 Oct 2014 (Local Time) from KICR Reporting Station
Clear Clear  
Wind Chill: 75°   Ceiling: Unl
Heat Index: 75°   Visibility: 10mi
Dew Point: 28°   Wind: 8mph
Humidity: 18%   Direction: 220°SW
Pressure: 29.91"   Gusts: NA
Location:  43.24°N, 99.52°W
Report Text: KICR 231953Z AUTO 22007KT 10SM CLR 24/M02 A2991 RMK AO2 SLP122 T02391022 $
Loading
Personal Weather Stations






























Interactive Weather Map
Tropical Storm Tracking
New forecast layout! Learn more

10-Day Weather Forecast

Advertisements
Track Severe Weather on mobile